Briefing drone pour Portes-les-valence

Rechercher une autre localisation

Conditions de vol :


Nous sommes le : Dimanche 29 janvier 2023
Il est 06:18 UTC (07:18 LT)

Lever de soleil : 06:36 UTC (07:36 LT)
Coucher de soleil : 17:10 UTC (18:10 LT)

Météo

L'essentiel des conditions de vol

VIGILANCE MÉTÉO FRANCE - Drôme (26)
Pas de vigilances particulieres
CARTE TEMSI
CARTES DES FRONTS
METAR de LFLU
LFLU 290600Z AUTO 36011KT 9999 OVC044 02/M02 Q1026

Date d'émission: 29/01/2023
Heure d'émission: 06:00 UTC
Vent: 360° pour 11 KT (20 km/h)
Visibilité horizontale: > 10 km
Plafond :
- Couvert à 4400ft (1341m)
Température: 2 °C
Point de rosée: -2 °C
Humidité: 75%
Pression (QNH): 1026 hPa
Prévision 24h pour Valence (5 km)
Vent : 18° pour 3 KT (10 km/h)
Temperature Maxi: -2 °C
Temperature Min: -2 °C
Humidité : 88%
Condition : Nuageux



Warning: count(): Parameter must be an array or an object that implements Countable in /homepages/6/d509196549/htdocs/droneoxygene/briefing.php on line 743
WEBCAM POUR PORTES-LES-VALENCE

Réglementation

Voler en sécurité

CARTES AERONAUTIQUE 1/500.000
CARTE AZBA (Reseau basse altitude)
CARTES VAC (LFLU)
SUP AIP




Chargement des AIP...
NOTAM (PORTES-LES-VALENCE + Terrain à proximité / FIR )




Chargement des NOTAMS...
CONTACT PREFECTURE 26
Drôme (26) : [email protected]


Avertissement : Les données mises à disposition sont indicatives. Oxygène Drone ne pourra être tenu responsable de dégâts causés aux biens et aux personnes.